createdAt,value
2022-10-17T00:00:06.554Z,9.07
2022-10-17T00:05:09.264Z,11.35
2022-10-17T00:10:10.302Z,12.52
2022-10-17T00:15:15.827Z,14.00
2022-10-17T00:20:18.173Z,9.70
2022-10-17T00:25:19.829Z,10.77
2022-10-17T00:30:20.684Z,7.72
2022-10-17T00:35:22.867Z,7.13
2022-10-17T00:40:23.792Z,11.15
2022-10-17T00:45:26.906Z,7.97
2022-10-17T00:50:29.646Z,11.02
2022-10-17T00:55:32.981Z,8.25
2022-10-17T01:00:33.795Z,12.30
2022-10-17T01:05:36.904Z,8.80
2022-10-17T01:10:47.205Z,9.80
2022-10-17T01:15:58.594Z,11.07
2022-10-17T01:21:31.270Z,8.20
2022-10-17T01:26:45.320Z,10.40
2022-10-17T01:31:51.049Z,8.40
2022-10-17T01:37:00.303Z,9.00
2022-10-17T01:42:08.126Z,12.45
2022-10-17T01:47:14.906Z,12.60
2022-10-17T01:52:20.077Z,14.82
2022-10-17T01:57:28.252Z,14.15
2022-10-17T02:02:32.319Z,15.30
2022-10-17T02:07:33.108Z,16.25
2022-10-17T02:12:46.390Z,22.38
2022-10-17T02:17:58.703Z,23.55
2022-10-17T02:23:09.860Z,25.00
2022-10-17T02:28:20.965Z,35.05
2022-10-17T02:33:29.170Z,33.40
2022-10-17T02:38:31.625Z,39.75
2022-10-17T02:43:32.722Z,51.55
2022-10-17T02:48:39.888Z,43.60
2022-10-17T02:53:48.856Z,45.55
2022-10-17T02:58:56.120Z,41.33
2022-10-17T03:04:08.479Z,45.78
2022-10-17T03:09:09.332Z,45.33
2022-10-17T03:14:10.747Z,47.83
2022-10-17T03:19:12.987Z,54.00
2022-10-17T03:24:14.131Z,48.25
2022-10-17T03:29:15.168Z,56.40
2022-10-17T03:34:18.868Z,51.97
2022-10-17T03:39:20.242Z,53.75
2022-10-17T03:44:21.141Z,56.90
2022-10-17T03:49:24.176Z,53.17
2022-10-17T03:54:25.089Z,54.53
2022-10-17T03:59:26.359Z,54.15
2022-10-17T04:04:37.409Z,60.80
2022-10-17T04:09:38.250Z,54.60
2022-10-17T04:14:43.214Z,55.45
2022-10-17T04:19:45.420Z,60.03
2022-10-17T04:24:50.052Z,53.78
2022-10-17T04:30:09.503Z,59.33
2022-10-17T04:35:11.968Z,59.35
2022-10-17T04:40:16.485Z,57.90
2022-10-17T04:45:17.513Z,63.03
2022-10-17T04:50:20.936Z,59.70
2022-10-17T04:55:41.746Z,58.47
2022-10-17T05:00:43.033Z,55.55
2022-10-17T05:05:57.949Z,65.70
2022-10-17T05:16:01.292Z,66.63
2022-10-17T05:21:04.429Z,66.68
2022-10-17T05:26:05.441Z,68.72
2022-10-17T05:31:07.321Z,66.63
2022-10-17T05:36:10.105Z,72.32
2022-10-17T05:41:11.279Z,77.07
2022-10-17T05:46:12.599Z,74.65
2022-10-17T05:51:14.923Z,77.00
2022-10-17T05:56:17.209Z,73.38
2022-10-17T06:01:18.321Z,78.60
2022-10-17T06:06:20.682Z,77.35
2022-10-17T06:11:23.060Z,82.82
2022-10-17T06:16:24.300Z,77.38
2022-10-17T06:21:28.099Z,81.65
2022-10-17T06:26:50.023Z,78.93
2022-10-17T06:31:52.759Z,78.68
2022-10-17T06:42:02.269Z,73.40
2022-10-17T06:47:32.743Z,72.72
2022-10-17T06:52:42.418Z,67.07
2022-10-17T06:58:15.267Z,66.07
2022-10-17T07:03:29.641Z,63.97
2022-10-17T07:08:32.469Z,61.80
2022-10-17T07:13:39.194Z,61.45
2022-10-17T07:18:41.566Z,61.40
2022-10-17T07:23:44.050Z,54.28
2022-10-17T07:28:47.010Z,53.70
2022-10-17T07:34:02.325Z,51.78
2022-10-17T07:39:07.972Z,56.15
2022-10-17T07:44:11.672Z,53.65
2022-10-17T07:49:19.720Z,45.80
2022-10-17T07:54:22.204Z,45.95
2022-10-17T07:59:24.432Z,47.55
2022-10-17T08:04:25.406Z,46.47
2022-10-17T08:09:27.685Z,43.30
2022-10-17T08:14:28.642Z,48.58
2022-10-17T08:19:29.843Z,45.75
2022-10-17T08:24:32.094Z,42.63
2022-10-17T08:29:33.879Z,41.90
2022-10-17T08:34:34.742Z,40.67
2022-10-17T08:39:37.106Z,38.50
2022-10-17T08:44:50.964Z,36.88
2022-10-17T08:49:55.763Z,41.25
2022-10-17T08:54:58.103Z,37.55
2022-10-17T08:59:59.404Z,36.08
2022-10-17T09:05:16.969Z,37.65
2022-10-17T09:10:28.419Z,39.70
2022-10-17T09:16:07.606Z,36.28
2022-10-17T09:21:20.601Z,42.10
2022-10-17T09:26:23.553Z,42.85
2022-10-17T09:31:27.445Z,34.75
2022-10-17T09:36:31.553Z,39.13
2022-10-17T09:41:45.268Z,34.50
2022-10-17T09:46:59.188Z,37.65
2022-10-17T09:52:11.909Z,40.47
2022-10-17T09:57:15.474Z,36.05
2022-10-17T10:02:20.210Z,37.67
2022-10-17T10:07:26.888Z,33.92
2022-10-17T10:12:33.180Z,42.10
2022-10-17T10:17:41.766Z,34.00
2022-10-17T10:22:42.807Z,30.70
2022-10-17T10:27:47.662Z,30.73
2022-10-17T10:32:50.184Z,31.13
2022-10-17T10:37:54.422Z,35.42
2022-10-17T10:43:04.184Z,33.42
2022-10-17T10:48:19.858Z,28.98
2022-10-17T10:53:35.169Z,30.42
2022-10-17T10:58:49.752Z,30.25
2022-10-17T11:04:01.301Z,29.40
2022-10-17T11:09:14.904Z,30.35
2022-10-17T11:14:22.423Z,28.13
2022-10-17T11:19:29.585Z,25.73
2022-10-17T11:24:35.244Z,28.27
2022-10-17T11:29:40.706Z,27.98
2022-10-17T11:34:46.678Z,30.67
2022-10-17T11:39:52.840Z,27.95
2022-10-17T11:45:04.706Z,24.77
2022-10-17T11:55:39.711Z,26.35
2022-10-17T12:00:55.423Z,29.60
2022-10-17T12:06:01.739Z,26.33
2022-10-17T12:11:08.521Z,23.05
2022-10-17T12:16:44.329Z,20.70
2022-10-17T12:22:00.931Z,26.40
2022-10-17T12:27:23.170Z,24.63
2022-10-17T12:32:30.173Z,25.73
2022-10-17T12:38:03.761Z,24.13
2022-10-17T12:43:40.520Z,22.83
2022-10-17T12:49:04.682Z,22.02
2022-10-17T12:54:13.153Z,20.02
2022-10-17T12:59:17.902Z,21.38
2022-10-17T13:04:21.114Z,19.85
2022-10-17T13:09:28.697Z,21.40
2022-10-17T13:14:30.721Z,22.95
2022-10-17T13:19:42.346Z,29.75
2022-10-17T13:24:43.262Z,22.67
2022-10-17T13:29:45.951Z,26.45
2022-10-17T13:35:05.254Z,29.10
2022-10-17T13:40:30.688Z,29.73
2022-10-17T13:45:31.632Z,25.40
2022-10-17T13:50:44.666Z,24.63
2022-10-17T13:56:09.510Z,28.20
2022-10-17T14:01:16.047Z,22.95
2022-10-17T14:06:21.246Z,26.70
2022-10-17T14:11:27.048Z,27.83
2022-10-17T14:16:35.082Z,24.65
2022-10-17T14:21:44.189Z,29.75
2022-10-17T14:26:50.586Z,27.60
2022-10-17T14:31:58.368Z,28.13
2022-10-17T14:37:01.257Z,24.42
2022-10-17T14:42:04.531Z,31.70
2022-10-17T14:47:38.186Z,23.48
2022-10-17T14:52:33.292Z,28.55
2022-10-17T14:57:44.213Z,30.73
2022-10-17T15:02:45.966Z,29.73
2022-10-17T15:07:48.219Z,28.52
2022-10-17T15:12:58.802Z,28.58
2022-10-17T15:18:06.112Z,28.17
2022-10-17T15:23:10.075Z,32.13
2022-10-17T15:28:14.480Z,31.30
2022-10-17T15:33:16.512Z,30.85
2022-10-17T15:38:19.336Z,35.28
2022-10-17T15:43:20.317Z,33.95
2022-10-17T15:48:29.337Z,39.72
2022-10-17T15:53:31.624Z,35.97
2022-10-17T15:58:36.952Z,39.80
2022-10-17T16:03:38.306Z,32.65
2022-10-17T16:08:40.692Z,32.30
2022-10-17T16:13:42.570Z,36.17
2022-10-17T16:18:43.730Z,39.53
2022-10-17T16:23:46.354Z,40.95
2022-10-17T16:28:47.721Z,38.72
2022-10-17T16:33:50.066Z,38.28
2022-10-17T16:38:54.113Z,40.75
2022-10-17T16:43:56.774Z,40.50
2022-10-17T16:48:59.265Z,40.30
2022-10-17T16:54:01.559Z,40.00
2022-10-17T16:59:03.632Z,36.28
2022-10-17T17:04:04.824Z,47.40
2022-10-17T17:09:09.230Z,40.75
2022-10-17T17:14:10.382Z,41.08
2022-10-17T17:19:14.540Z,34.30
2022-10-17T17:24:18.152Z,39.90
2022-10-17T17:29:19.242Z,38.40
2022-10-17T17:34:20.328Z,38.00
2022-10-17T17:39:22.599Z,37.95
2022-10-17T17:44:23.633Z,38.58
2022-10-17T17:49:24.572Z,37.50
2022-10-17T17:54:26.895Z,40.60
2022-10-17T17:59:27.952Z,49.33
2022-10-17T18:04:28.957Z,43.85
2022-10-17T18:09:31.221Z,39.72
2022-10-17T18:14:32.188Z,47.42
2022-10-17T18:19:34.216Z,40.47
2022-10-17T18:24:36.784Z,45.80
2022-10-17T18:29:38.034Z,40.60
2022-10-17T18:34:39.355Z,43.45
2022-10-17T18:39:41.822Z,44.95
2022-10-17T18:44:50.143Z,48.30
2022-10-17T18:49:56.270Z,44.33
2022-10-17T18:54:58.981Z,51.22
2022-10-17T19:00:00.276Z,45.88
2022-10-17T19:05:03.059Z,48.83
2022-10-17T19:10:09.461Z,49.45
2022-10-17T19:15:14.960Z,45.72
2022-10-17T19:20:18.419Z,46.75
2022-10-17T19:25:21.036Z,50.33
2022-10-17T19:30:22.652Z,54.75
2022-10-17T19:35:23.823Z,48.13
2022-10-17T19:40:33.220Z,45.90
2022-10-17T19:45:34.569Z,46.30
2022-10-17T19:50:36.752Z,50.65
2022-10-17T19:55:41.365Z,49.65
2022-10-17T20:00:47.280Z,49.45
2022-10-17T20:05:48.460Z,48.95
2022-10-17T20:10:50.823Z,53.47
2022-10-17T20:16:21.201Z,52.53
2022-10-17T20:21:27.765Z,53.33
2022-10-17T20:26:38.215Z,47.33
2022-10-17T20:31:41.820Z,60.70
2022-10-17T20:36:42.816Z,53.28
2022-10-17T20:41:45.912Z,49.97
2022-10-17T20:47:00.766Z,50.72
2022-10-17T20:52:02.986Z,54.08
2022-10-17T20:57:06.391Z,53.80
2022-10-17T21:02:08.199Z,61.05
2022-10-17T21:07:09.845Z,50.83
2022-10-17T21:12:18.082Z,51.95
2022-10-17T21:17:27.223Z,53.20
2022-10-17T21:22:28.156Z,55.88
2022-10-17T21:27:30.492Z,57.00
2022-10-17T21:32:40.250Z,56.38
2022-10-17T21:37:52.331Z,58.67
2022-10-17T21:42:54.454Z,55.63
2022-10-17T21:48:12.268Z,58.78
2022-10-17T21:53:13.803Z,58.05
2022-10-17T21:58:15.976Z,62.60
2022-10-17T22:03:17.005Z,54.60
2022-10-17T22:08:17.809Z,60.22
2022-10-17T22:13:19.904Z,63.92
2022-10-17T22:18:20.686Z,69.53
2022-10-17T22:23:21.516Z,66.65
2022-10-17T22:28:24.155Z,63.13
2022-10-17T22:33:24.949Z,61.65
2022-10-17T22:38:25.698Z,68.05
2022-10-17T22:43:28.204Z,63.08
2022-10-17T22:48:30.425Z,67.88
2022-10-17T22:53:31.584Z,76.22
2022-10-17T22:58:35.573Z,62.63
2022-10-17T23:03:37.025Z,65.60
2022-10-17T23:08:38.020Z,60.85
2022-10-17T23:13:40.834Z,63.28
2022-10-17T23:18:44.216Z,57.72
2022-10-17T23:23:44.984Z,65.03
2022-10-17T23:28:47.193Z,62.60
2022-10-17T23:33:49.806Z,59.22
2022-10-17T23:38:52.656Z,65.90
2022-10-17T23:43:57.221Z,67.38
2022-10-17T23:48:57.996Z,64.88
2022-10-17T23:53:58.780Z,69.93
2022-10-17T23:59:00.909Z,60.78
